CheckWX is a tool to help pilots better visualize weather data.  It is not intended as a substitute for an official pre-flight weather briefing.

00:52:50 UTC

EBOS TAF
Ostend-Bruges International Airport
Ostend, Belgium
TAF EBOS 232315Z 2400/2506 04010KT 9999 FEW020 BKN045 BECMG 2412/2414 32010KT BECMG 2500/2502 32016G28KT PROB30 TEMPO 2503/2506 SHRA

Mar-24@
00:00 UTC

Mar-24 @ 00:00 UTC

Mar-24@
12:00 UTC

Mar-24 @ 12:00 UTC

TAF EBOS 232315Z 2400/2506 04010KT 9999 FEW020 BKN045
Wind
  • 040° at 10 KTS
Cloud Levels
  • Few at 2,000' AGL
  • Broken at 4,500' AGL

Mar-24@
12:00 UTC

Mar-24 @ 12:00 UTC

Mar-25@
00:00 UTC

Mar-25 @ 00:00 UTC

BECMG 2412/2414 32010KT

Becoming

Becoming Conditions expected by Sun, Mar 24, 2019 @ 14:00 UTC

Wind
  • 320° at 10 KTS
Cloud Levels
  • Few at 2,000' AGL
  • Broken at 4,500' AGL

Mar-25@
00:00 UTC

Mar-25 @ 00:00 UTC

Mar-25@
06:00 UTC

Mar-25 @ 06:00 UTC

BECMG 2500/2502 32016G28KT

Becoming

Becoming Conditions expected by Mon, Mar 25, 2019 @ 02:00 UTC

Wind
  • 320° at 16 KTS
  • {Gusting to 28 KTS
Cloud Levels
  • Few at 2,000' AGL
  • Broken at 4,500' AGL

Mar-25@
03:00 UTC

Mar-25 @ 03:00 UTC

Mar-25@
06:00 UTC

Mar-25 @ 06:00 UTC

PROB30 TEMPO 2503/2506 SHRA

Temporary - 30% Likelihood

Temporary - 30% Likelihood during this time.

Conditions
Rain